createdAt,value
2019-02-02T00:00:18.978Z,40.9
2019-02-02T00:02:18.609Z,44.6
2019-02-02T00:04:19.261Z,41.7
2019-02-02T00:06:19.152Z,40.4
2019-02-02T00:08:18.792Z,44.9
2019-02-02T00:10:18.934Z,44.9
2019-02-02T00:12:19.602Z,47.7
2019-02-02T00:14:19.383Z,45.7
2019-02-02T00:16:18.844Z,48.5
2019-02-02T00:18:19.582Z,50.5
2019-02-02T00:20:19.226Z,51.2
2019-02-02T00:22:18.872Z,47.5
2019-02-02T00:24:19.557Z,49.6
2019-02-02T00:26:18.831Z,52.2
2019-02-02T00:28:19.479Z,50.1
2019-02-02T00:30:19.133Z,51.1
2019-02-02T00:32:18.769Z,45.5
2019-02-02T00:34:19.403Z,58.5
2019-02-02T00:36:18.872Z,49.6
2019-02-02T00:38:19.512Z,39.2
2019-02-02T00:40:18.677Z,51.2
2019-02-02T00:42:19.382Z,46.8
2019-02-02T00:44:19.002Z,44.6
2019-02-02T00:46:19.404Z,43.8
2019-02-02T00:48:19.053Z,48.7
2019-02-02T00:50:18.715Z,49.8
2019-02-02T00:52:19.351Z,54.8
2019-02-02T00:54:18.961Z,54
2019-02-02T00:56:19.401Z,48.9
2019-02-02T00:58:19.050Z,45
2019-02-02T01:00:18.726Z,52.5
2019-02-02T01:02:19.352Z,55.6
2019-02-02T01:04:19.102Z,53.1
2019-02-02T01:06:18.878Z,49.3
2019-02-02T01:08:19.551Z,47.8
2019-02-02T01:10:18.713Z,45.3
2019-02-02T01:12:19.342Z,48.2
2019-02-02T01:14:19.096Z,56.9
2019-02-02T01:16:19.405Z,51.2
2019-02-02T01:18:19.100Z,48.2
2019-02-02T01:20:18.770Z,49.6
2019-02-02T01:22:19.405Z,40
2019-02-02T01:24:19.090Z,54.9
2019-02-02T01:26:19.364Z,53.7
2019-02-02T01:28:19.021Z,54.9
2019-02-02T01:30:18.698Z,47.7
2019-02-02T01:32:19.371Z,50.3
2019-02-02T01:34:18.997Z,47.5
2019-02-02T01:36:19.352Z,50.4
2019-02-02T01:38:19.039Z,45.8
2019-02-02T01:40:19.117Z,59.7
2019-02-02T01:42:18.756Z,64.2
2019-02-02T01:44:19.441Z,48.3
2019-02-02T01:46:18.733Z,57.8
2019-02-02T01:48:19.367Z,47
2019-02-02T01:50:19.022Z,50.2
2019-02-02T01:52:18.653Z,41.2
2019-02-02T01:54:19.328Z,50.7
2019-02-02T01:56:19.328Z,57
2019-02-02T01:58:18.957Z,45.6
2019-02-02T02:00:18.614Z,47.6
2019-02-02T02:02:19.269Z,46.1
2019-02-02T02:04:18.909Z,61
2019-02-02T02:06:19.183Z,52.7
2019-02-02T02:08:18.818Z,58.4
2019-02-02T02:10:18.933Z,56.1
2019-02-02T02:12:19.571Z,53.2
2019-02-02T02:14:19.220Z,48.6
2019-02-02T02:16:19.052Z,55.8
2019-02-02T02:18:18.783Z,56.1
2019-02-02T02:20:19.484Z,57.5
2019-02-02T02:22:19.101Z,52.8
2019-02-02T02:24:18.709Z,59.5
2019-02-02T02:26:19.106Z,51.4
2019-02-02T02:28:28.539Z,59.3
2019-02-02T02:30:19.333Z,63.8
2019-02-02T02:32:18.965Z,56.4
2019-02-02T02:34:18.673Z,56.5
2019-02-02T02:36:19.479Z,61
2019-02-02T02:38:19.111Z,63.8
2019-02-02T02:40:19.187Z,55.7
2019-02-02T02:42:18.811Z,57.8
2019-02-02T02:44:19.484Z,61.4
2019-02-02T02:46:18.768Z,57.3
2019-02-02T02:48:19.415Z,47
2019-02-02T02:50:19.060Z,55.9
2019-02-02T02:52:18.683Z,56
2019-02-02T02:54:19.313Z,55.4
2019-02-02T02:56:19.575Z,64.7
2019-02-02T02:58:19.196Z,58.7
2019-02-02T03:00:18.840Z,64.4
2019-02-02T03:02:19.501Z,49.7
2019-02-02T03:04:19.162Z,64.6
2019-02-02T03:06:19.552Z,59.9
2019-02-02T03:08:19.229Z,57.5
2019-02-02T03:10:19.417Z,75.9
2019-02-02T03:12:19.064Z,69.2
2019-02-02T03:14:18.750Z,70.9
2019-02-02T03:16:19.131Z,73.1
2019-02-02T03:18:18.834Z,69.9
2019-02-02T03:20:19.464Z,67.3
2019-02-02T03:22:19.106Z,74.6
2019-02-02T03:24:18.765Z,72.6
2019-02-02T03:26:18.591Z,67.7
2019-02-02T03:28:19.235Z,73.9
2019-02-02T03:30:18.975Z,68.4
2019-02-02T03:32:18.674Z,80.5
2019-02-02T03:34:19.328Z,59.3
2019-02-02T03:36:19.122Z,69.1
2019-02-02T03:38:18.775Z,69.4
2019-02-02T03:40:18.860Z,76.6
2019-02-02T03:42:19.493Z,62
2019-02-02T03:44:19.141Z,64.4
2019-02-02T03:46:19.451Z,69.4
2019-02-02T03:48:19.099Z,76.1
2019-02-02T03:50:18.769Z,70
2019-02-02T03:52:19.174Z,63.6
2019-02-02T03:54:18.794Z,73.7
2019-02-02T03:56:19.203Z,66.2
2019-02-02T03:58:18.829Z,79
2019-02-02T04:00:19.468Z,75
2019-02-02T04:02:19.169Z,62.1
2019-02-02T04:04:18.816Z,63.9
2019-02-02T04:06:19.380Z,77.9
2019-02-02T04:08:19.062Z,70.6
2019-02-02T04:10:19.374Z,74.9
2019-02-02T04:12:19.037Z,68.8
2019-02-02T04:14:18.728Z,71.5
2019-02-02T04:16:19.278Z,68.5
2019-02-02T04:18:18.983Z,71.4
2019-02-02T04:20:18.781Z,75.1
2019-02-02T04:22:19.547Z,71.3
2019-02-02T04:24:19.191Z,74.8
2019-02-02T04:26:18.639Z,84.7
2019-02-02T04:28:19.298Z,66.8
2019-02-02T04:30:18.988Z,71.9
2019-02-02T04:32:18.614Z,87.7
2019-02-02T04:34:21.266Z,75.9
2019-02-02T04:36:19.536Z,84.7
2019-02-02T04:38:19.188Z,74.1
2019-02-02T04:40:19.334Z,76.4
2019-02-02T04:42:18.664Z,74.2
2019-02-02T04:44:19.290Z,90.8
2019-02-02T04:46:19.148Z,81.6
2019-02-02T04:48:18.820Z,77.9
2019-02-02T04:50:19.492Z,78
2019-02-02T04:52:19.125Z,67.4
2019-02-02T04:54:18.827Z,74.5
2019-02-02T04:56:18.666Z,97.5
2019-02-02T04:58:19.309Z,78.1
2019-02-02T05:00:18.956Z,80.4
2019-02-02T05:02:18.575Z,90.8
2019-02-02T05:04:19.211Z,79.2
2019-02-02T05:06:19.071Z,88.6
2019-02-02T05:08:18.750Z,67.6
2019-02-02T05:10:18.866Z,85.9
2019-02-02T05:12:19.523Z,94.3
2019-02-02T05:14:19.142Z,87.8
2019-02-02T05:16:19.542Z,80.6
2019-02-02T05:18:19.288Z,94.3
2019-02-02T05:20:18.966Z,88.2
2019-02-02T05:22:18.645Z,83.9
2019-02-02T05:24:19.290Z,71.9
2019-02-02T05:26:19.549Z,103.9
2019-02-02T05:28:19.188Z,93
2019-02-02T05:30:18.847Z,86.2
2019-02-02T05:32:19.491Z,83.1
2019-02-02T05:34:19.189Z,71.7
2019-02-02T05:36:19.032Z,80.2
2019-02-02T05:38:18.688Z,88.7
2019-02-02T05:40:18.784Z,92.7
2019-02-02T05:42:19.458Z,79.4
2019-02-02T05:44:19.096Z,94.9
2019-02-02T05:46:18.907Z,90.9
2019-02-02T05:48:19.576Z,89.4
2019-02-02T05:50:19.258Z,86
2019-02-02T05:52:18.898Z,75.7
2019-02-02T05:54:19.548Z,93.9
2019-02-02T05:56:19.512Z,93.5
2019-02-02T05:58:19.145Z,87.7
2019-02-02T06:00:18.803Z,97.5
2019-02-02T06:02:19.436Z,86.7
2019-02-02T06:04:19.083Z,93.7
2019-02-02T06:06:18.971Z,89.4
2019-02-02T06:08:18.611Z,83.2
2019-02-02T06:10:18.750Z,86.9
2019-02-02T06:12:19.380Z,89
2019-02-02T06:14:19.075Z,105.3
2019-02-02T06:16:19.515Z,109.7
2019-02-02T06:18:19.267Z,105.8
2019-02-02T06:20:18.911Z,95.5
2019-02-02T06:22:19.570Z,107.3
2019-02-02T06:24:19.245Z,94.4
2019-02-02T06:26:19.344Z,92.1
2019-02-02T06:28:18.968Z,82.6
2019-02-02T06:30:18.608Z,78.7
2019-02-02T06:32:19.255Z,100.9
2019-02-02T06:34:18.904Z,82.7
2019-02-02T06:36:18.772Z,95.8
2019-02-02T06:38:19.500Z,93.4
2019-02-02T06:40:18.675Z,87.7
2019-02-02T06:42:19.333Z,100.1
2019-02-02T06:44:18.966Z,88.1
2019-02-02T06:46:18.938Z,95.6
2019-02-02T06:48:19.594Z,85.9
2019-02-02T06:50:19.336Z,81
2019-02-02T06:52:18.998Z,85
2019-02-02T06:54:18.624Z,81.4
2019-02-02T06:56:19.428Z,102
2019-02-02T06:58:19.089Z,95
2019-02-02T07:00:18.779Z,85.6
2019-02-02T07:02:19.424Z,109.1
2019-02-02T07:04:19.076Z,100
2019-02-02T07:06:18.867Z,87.5
2019-02-02T07:08:19.488Z,84.8
2019-02-02T07:10:18.621Z,82.6
2019-02-02T07:12:19.243Z,88.2
2019-02-02T07:14:18.913Z,93.9
2019-02-02T07:16:19.279Z,92.9
2019-02-02T07:18:19.011Z,70
2019-02-02T07:20:18.676Z,93.9
2019-02-02T07:22:19.305Z,93.1
2019-02-02T07:24:18.961Z,87.6
2019-02-02T07:26:18.815Z,93.4
2019-02-02T07:28:19.465Z,78.9
2019-02-02T07:30:29.755Z,87.1
2019-02-02T07:32:19.504Z,99.7
2019-02-02T07:34:19.189Z,98.9
2019-02-02T07:36:19.110Z,99.1
2019-02-02T07:38:18.752Z,93.7
2019-02-02T07:40:18.914Z,96.4
2019-02-02T07:42:19.563Z,89.2
2019-02-02T07:44:19.221Z,98
2019-02-02T07:46:18.595Z,79.5
2019-02-02T07:48:19.217Z,91.5
2019-02-02T07:50:18.926Z,85.5
2019-02-02T07:52:19.548Z,82.6
2019-02-02T07:54:19.182Z,83.1
2019-02-02T07:56:19.248Z,90.4
2019-02-02T07:58:18.871Z,82.5
2019-02-02T08:00:19.536Z,94.3
2019-02-02T08:02:19.193Z,99.9
2019-02-02T08:04:18.830Z,92.4
2019-02-02T08:06:19.344Z,93.3
2019-02-02T08:08:19.006Z,77.5
2019-02-02T08:10:19.115Z,90.1
2019-02-02T08:12:19.780Z,81.7
2019-02-02T08:14:19.413Z,80.5
2019-02-02T08:16:19.280Z,101.1
2019-02-02T08:18:19.022Z,81.6
2019-02-02T08:20:18.660Z,86.2
2019-02-02T08:22:19.282Z,87.4
2019-02-02T08:24:18.938Z,105.3
2019-02-02T08:26:18.735Z,90.2
2019-02-02T08:28:22.046Z,83
2019-02-02T08:30:18.911Z,86.9
2019-02-02T08:32:19.556Z,75.4
2019-02-02T08:34:19.222Z,93
2019-02-02T08:36:19.031Z,94.7
2019-02-02T08:38:18.635Z,74.6
2019-02-02T08:40:18.807Z,101.4
2019-02-02T08:42:19.474Z,83.2
2019-02-02T08:44:19.135Z,94.9
2019-02-02T08:46:19.419Z,89.5
2019-02-02T08:48:19.069Z,110
2019-02-02T08:50:18.719Z,109.6
2019-02-02T08:52:19.334Z,106.7
2019-02-02T08:54:18.943Z,83.3
2019-02-02T08:56:18.845Z,89.1
2019-02-02T08:58:19.568Z,92.4
2019-02-02T09:00:19.235Z,88.3
2019-02-02T09:02:18.888Z,92
2019-02-02T09:04:19.588Z,86.4
2019-02-02T09:06:18.669Z,85.7
2019-02-02T09:08:19.335Z,86.7
2019-02-02T09:10:19.626Z,94.7
2019-02-02T09:12:19.258Z,96.9
2019-02-02T09:14:18.869Z,89.4
2019-02-02T09:16:19.426Z,88.3
2019-02-02T09:18:19.162Z,89.1
2019-02-02T09:20:18.806Z,105.3
2019-02-02T09:22:19.455Z,95.8
2019-02-02T09:24:19.086Z,91.4
2019-02-02T09:26:18.926Z,96.7
2019-02-02T09:28:19.535Z,94.6
2019-02-02T09:30:19.312Z,94.6
2019-02-02T09:32:18.960Z,110
2019-02-02T09:34:18.600Z,96.1
2019-02-02T09:36:19.458Z,90.4
2019-02-02T09:38:19.150Z,97.6
2019-02-02T09:40:19.325Z,109.6
2019-02-02T09:42:18.979Z,103
2019-02-02T09:44:18.632Z,91.5
2019-02-02T09:46:19.426Z,92.7
2019-02-02T09:48:19.074Z,94.4
2019-02-02T09:50:18.820Z,96.8
2019-02-02T09:52:19.452Z,90.3
2019-02-02T09:54:27.056Z,92.8
2019-02-02T09:56:19.413Z,98.7
2019-02-02T09:58:19.050Z,104.8
2019-02-02T10:00:18.694Z,101.1
2019-02-02T10:02:19.324Z,90.9
2019-02-02T10:04:18.945Z,100.2
2019-02-02T10:06:19.333Z,97.5
2019-02-02T10:08:18.959Z,99.4
2019-02-02T10:10:19.133Z,105
2019-02-02T10:12:21.354Z,98.9
2019-02-02T10:14:18.992Z,104.3
2019-02-02T10:16:19.249Z,70.8
2019-02-02T10:18:18.946Z,89.3
2019-02-02T10:20:18.571Z,84
2019-02-02T10:22:19.205Z,103.1
2019-02-02T10:24:18.834Z,101.5
2019-02-02T10:26:19.172Z,106.5
2019-02-02T10:28:18.818Z,87.4
2019-02-02T10:30:22.477Z,94.3
2019-02-02T10:32:19.461Z,114.6
2019-02-02T10:34:19.087Z,113.4
2019-02-02T10:36:20.424Z,106.3
2019-02-02T10:38:19.101Z,94.3
2019-02-02T10:40:19.290Z,99.6
2019-02-02T10:42:18.940Z,111.6
2019-02-02T10:44:19.543Z,100.7
2019-02-02T10:46:19.358Z,114.5
2019-02-02T10:48:18.984Z,96.6
2019-02-02T10:50:18.613Z,106.9
2019-02-02T10:52:19.245Z,113.7
2019-02-02T10:54:18.882Z,104.7
2019-02-02T10:56:19.209Z,96.6
2019-02-02T10:58:18.902Z,108.3
2019-02-02T11:00:19.566Z,111.3
2019-02-02T11:02:19.250Z,113.8
2019-02-02T11:04:18.943Z,110.1
2019-02-02T11:06:18.940Z,116
2019-02-02T11:08:18.726Z,100.9
2019-02-02T11:10:19.258Z,111.8
2019-02-02T11:12:18.839Z,111.5
2019-02-02T11:14:19.704Z,105.8
2019-02-02T11:16:18.828Z,114.9
2019-02-02T11:18:19.776Z,112
2019-02-02T11:20:19.639Z,129.2
2019-02-02T11:22:19.666Z,101.8
2019-02-02T11:24:19.740Z,117.1
2019-02-02T11:26:18.900Z,103.7
2019-02-02T11:28:19.642Z,118.5
2019-02-02T11:30:19.509Z,98.8
2019-02-02T11:32:19.180Z,116.5
2019-02-02T11:34:18.815Z,101.6
2019-02-02T11:36:18.596Z,104.3
2019-02-02T11:38:19.251Z,114
2019-02-02T11:40:19.398Z,119.9
2019-02-02T11:42:19.035Z,111.4
2019-02-02T11:44:20.351Z,138.7
2019-02-02T11:46:18.635Z,106.4
2019-02-02T11:48:19.281Z,100.3
2019-02-02T11:50:18.934Z,105.2
2019-02-02T11:52:19.580Z,114.4
2019-02-02T11:54:19.228Z,120.9
2019-02-02T11:56:19.138Z,97.3
2019-02-02T11:58:18.767Z,94.2
2019-02-02T12:00:19.421Z,102.9
2019-02-02T12:02:19.068Z,95.7
2019-02-02T12:04:18.721Z,116.5
2019-02-02T12:06:19.041Z,115.8
2019-02-02T12:08:18.700Z,107.6
2019-02-02T12:10:18.838Z,100.2
2019-02-02T12:12:19.511Z,104.8
2019-02-02T12:14:19.169Z,93.7
2019-02-02T12:16:19.560Z,110.5
2019-02-02T12:18:19.320Z,125.5
2019-02-02T12:20:18.974Z,115.4
2019-02-02T12:22:18.621Z,100.9
2019-02-02T12:24:19.268Z,123.3
2019-02-02T12:26:19.116Z,96.7
2019-02-02T12:28:18.758Z,101
2019-02-02T12:30:19.417Z,103
2019-02-02T12:32:27.131Z,100.4
2019-02-02T12:34:18.839Z,113
2019-02-02T12:36:18.756Z,113.5
2019-02-02T12:38:19.387Z,95.2
2019-02-02T12:40:19.481Z,101.1
2019-02-02T12:42:19.129Z,131.6
2019-02-02T12:44:18.775Z,136.5
2019-02-02T12:46:19.084Z,129.4
2019-02-02T12:48:18.706Z,108.5
2019-02-02T12:50:19.359Z,98.9
2019-02-02T12:52:18.978Z,108.1
2019-02-02T12:54:18.616Z,122
2019-02-02T12:56:18.927Z,105.5
2019-02-02T12:58:19.679Z,105
2019-02-02T13:00:19.375Z,119.7
2019-02-02T13:02:18.996Z,98.9
2019-02-02T13:04:18.644Z,107.7
2019-02-02T13:06:18.895Z,120.8
2019-02-02T13:08:19.518Z,107.3
2019-02-02T13:10:18.831Z,94.3
2019-02-02T13:12:19.469Z,108.6
2019-02-02T13:14:19.102Z,97
2019-02-02T13:16:18.961Z,97.5
2019-02-02T13:18:18.687Z,108.5
2019-02-02T13:20:19.328Z,102.4
2019-02-02T13:22:18.951Z,101.2
2019-02-02T13:24:18.590Z,83.7
2019-02-02T13:26:19.495Z,99.9
2019-02-02T13:28:19.139Z,105.6
2019-02-02T13:30:18.799Z,79.9
2019-02-02T13:32:19.548Z,79
2019-02-02T13:34:19.239Z,94.3
2019-02-02T13:36:19.525Z,103.3
2019-02-02T13:38:19.170Z,86.9
2019-02-02T13:40:19.331Z,97.2
2019-02-02T13:42:19.002Z,81.6
2019-02-02T13:44:18.651Z,90.4
2019-02-02T13:46:18.983Z,93.8
2019-02-02T13:48:18.624Z,97.9
2019-02-02T13:50:19.330Z,82.9
2019-02-02T13:52:18.994Z,100.9
2019-02-02T13:54:18.657Z,86.1
2019-02-02T13:56:18.922Z,95.3
2019-02-02T13:58:19.549Z,71.9
2019-02-02T14:00:19.220Z,84.1
2019-02-02T14:02:18.860Z,90.5
2019-02-02T14:04:19.540Z,83
2019-02-02T14:06:18.861Z,95.4
2019-02-02T14:08:19.555Z,89.6
2019-02-02T14:10:18.689Z,74.1
2019-02-02T14:12:19.368Z,83
2019-02-02T14:14:19.000Z,76.4
2019-02-02T14:16:18.810Z,79.4
2019-02-02T14:18:19.504Z,77.5
2019-02-02T14:20:19.160Z,83.9
2019-02-02T14:22:18.816Z,87.7
2019-02-02T14:24:19.456Z,75.7
2019-02-02T14:26:18.805Z,85
2019-02-02T14:28:28.835Z,94.7
2019-02-02T14:30:19.553Z,80.8
2019-02-02T14:32:19.202Z,82.9
2019-02-02T14:34:18.844Z,93.5
2019-02-02T14:36:18.650Z,85.9
2019-02-02T14:38:20.667Z,95.4
2019-02-02T14:40:18.746Z,83.1
2019-02-02T14:42:19.390Z,75.1
2019-02-02T14:44:18.994Z,98.7
2019-02-02T14:46:18.835Z,84.9
2019-02-02T14:48:19.465Z,84.4
2019-02-02T14:50:19.602Z,96.2
2019-02-02T14:52:19.524Z,88.2
2019-02-02T14:54:19.187Z,85.8
2019-02-02T14:56:19.469Z,80.7
2019-02-02T14:58:19.124Z,92.1
2019-02-02T15:00:18.783Z,88.7
2019-02-02T15:02:19.440Z,78.9
2019-02-02T15:04:19.115Z,91.6
2019-02-02T15:06:19.400Z,91.1
2019-02-02T15:08:19.040Z,99.5
2019-02-02T15:10:19.158Z,89.1
2019-02-02T15:12:18.840Z,78.8
2019-02-02T15:14:19.486Z,83.8
2019-02-02T15:16:18.890Z,89.4
2019-02-02T15:18:18.619Z,78.3
2019-02-02T15:20:22.758Z,84
2019-02-02T15:22:19.439Z,104.2
2019-02-02T15:24:19.087Z,84.5
2019-02-02T15:26:18.910Z,87
2019-02-02T15:28:19.577Z,104.3
2019-02-02T15:30:19.245Z,76.9
2019-02-02T15:32:18.884Z,99.7
2019-02-02T15:34:19.530Z,90.5
2019-02-02T15:36:19.430Z,81.8
2019-02-02T15:38:19.335Z,90.9
2019-02-02T15:40:19.470Z,83
2019-02-02T15:42:19.129Z,93.9
2019-02-02T15:44:18.796Z,82.4
2019-02-02T15:46:18.593Z,80.5
2019-02-02T15:48:19.229Z,97.1
2019-02-02T15:50:18.860Z,92.4
2019-02-02T15:52:19.486Z,91.9
2019-02-02T15:54:19.129Z,75.9
2019-02-02T15:56:19.444Z,78.6
2019-02-02T15:58:19.107Z,85.6
2019-02-02T16:00:18.765Z,72.8
2019-02-02T16:02:19.410Z,62.3
2019-02-02T16:04:19.056Z,70.9
2019-02-02T16:06:19.518Z,64.4
2019-02-02T16:08:19.138Z,75.9
2019-02-02T16:10:19.352Z,75.4
2019-02-02T16:12:18.982Z,79.8
2019-02-02T16:14:18.631Z,82.2
2019-02-02T16:16:18.652Z,68.5
2019-02-02T16:18:19.344Z,60.6
2019-02-02T16:20:18.957Z,66.5
2019-02-02T16:22:18.593Z,70.6
2019-02-02T16:24:19.237Z,72
2019-02-02T16:26:18.721Z,91.3
2019-02-02T16:28:19.372Z,61.9
2019-02-02T16:30:19.016Z,74
2019-02-02T16:32:20.184Z,63.7
2019-02-02T16:34:18.824Z,69.7
2019-02-02T16:36:19.115Z,64.2
2019-02-02T16:38:18.742Z,71.5
2019-02-02T16:40:18.861Z,78.8
2019-02-02T16:42:19.491Z,65.5
2019-02-02T16:44:19.155Z,78.8
2019-02-02T16:46:18.978Z,85.7
2019-02-02T16:48:18.634Z,73.8
2019-02-02T16:50:19.280Z,63.1
2019-02-02T16:52:18.987Z,70.9
2019-02-02T16:54:18.634Z,66.5
2019-02-02T16:56:18.969Z,73.5
2019-02-02T16:58:18.619Z,74.6
2019-02-02T17:00:19.253Z,84.3
2019-02-02T17:02:18.879Z,72.2
2019-02-02T17:04:19.531Z,87.1
2019-02-02T17:06:18.840Z,64.4
2019-02-02T17:08:19.481Z,68.8
2019-02-02T17:10:19.703Z,83.9
2019-02-02T17:12:19.347Z,61.9
2019-02-02T17:14:19.034Z,74.2
2019-02-02T17:16:18.907Z,69.3
2019-02-02T17:18:18.598Z,62
2019-02-02T17:20:19.226Z,78.4
2019-02-02T17:22:18.880Z,70
2019-02-02T17:24:19.500Z,68
2019-02-02T17:26:19.318Z,73.8
2019-02-02T17:28:18.950Z,64.6
2019-02-02T17:30:18.653Z,73.8
2019-02-02T17:32:19.314Z,62.9
2019-02-02T17:34:27.723Z,62.4
2019-02-02T17:36:19.025Z,62.7
2019-02-02T17:38:18.680Z,63.2
2019-02-02T17:40:18.815Z,63.6
2019-02-02T17:42:19.468Z,66.8
2019-02-02T17:44:19.095Z,78.7
2019-02-02T17:46:18.868Z,58.9
2019-02-02T17:48:19.500Z,61.6
2019-02-02T17:50:19.298Z,63.8
2019-02-02T17:52:18.947Z,55.7
2019-02-02T17:54:18.597Z,59
2019-02-02T17:56:19.394Z,53.7
2019-02-02T17:58:19.003Z,52.3
2019-02-02T18:00:18.671Z,70
2019-02-02T18:02:19.295Z,61.6
2019-02-02T18:04:18.996Z,62.8
2019-02-02T18:06:19.334Z,57.7
2019-02-02T18:08:18.982Z,63.6
2019-02-02T18:10:19.093Z,52.4
2019-02-02T18:12:18.735Z,59.4
2019-02-02T18:14:19.376Z,55.4
2019-02-02T18:16:18.733Z,56.8
2019-02-02T18:18:19.427Z,47.7
2019-02-02T18:20:19.063Z,51.2
2019-02-02T18:22:18.708Z,49.9
2019-02-02T18:24:19.354Z,66.4
2019-02-02T18:26:18.634Z,46.3
2019-02-02T18:28:19.262Z,50.3
2019-02-02T18:30:19.140Z,53.6
2019-02-02T18:32:18.804Z,54.2
2019-02-02T18:34:19.476Z,44.9
2019-02-02T18:36:19.438Z,42.8
2019-02-02T18:38:19.097Z,51.5
2019-02-02T18:40:19.217Z,46.4
2019-02-02T18:42:18.829Z,52.5
2019-02-02T18:44:19.471Z,47.3
2019-02-02T18:46:19.001Z,57.4
2019-02-02T18:48:18.650Z,42.8
2019-02-02T18:50:19.278Z,43.8
2019-02-02T18:52:18.969Z,47.2
2019-02-02T18:54:18.645Z,52.1
2019-02-02T18:56:19.468Z,44
2019-02-02T18:58:19.072Z,45.9
2019-02-02T19:00:18.743Z,51
2019-02-02T19:02:19.367Z,49.1
2019-02-02T19:04:19.006Z,48.3
2019-02-02T19:06:19.146Z,43.2
2019-02-02T19:08:18.791Z,54.2
2019-02-02T19:10:19.116Z,42
2019-02-02T19:12:18.767Z,47.2
2019-02-02T19:14:19.407Z,37.6
2019-02-02T19:16:19.254Z,36.7
2019-02-02T19:18:18.981Z,44.9
2019-02-02T19:20:18.641Z,41.6
2019-02-02T19:22:19.273Z,37.3
2019-02-02T19:24:18.914Z,47.4
2019-02-02T19:26:18.869Z,44.1
2019-02-02T19:28:19.490Z,39.8
2019-02-02T19:30:19.131Z,42.9
2019-02-02T19:32:18.764Z,39.1
2019-02-02T19:34:19.620Z,44.1
2019-02-02T19:36:19.485Z,42.8
2019-02-02T19:38:19.134Z,47.4
2019-02-02T19:40:19.267Z,40.6
2019-02-02T19:42:18.895Z,51.3
2019-02-02T19:44:19.660Z,49.5
2019-02-02T19:46:19.072Z,53.8
2019-02-02T19:48:18.728Z,37.4
2019-02-02T19:50:19.355Z,48.9
2019-02-02T19:52:19.002Z,51.6
2019-02-02T19:54:18.692Z,58.3
2019-02-02T19:56:19.215Z,50
2019-02-02T19:58:18.855Z,46.3
2019-02-02T20:00:19.519Z,49.3
2019-02-02T20:02:19.162Z,49.1
2019-02-02T20:04:18.799Z,51.4
2019-02-02T20:06:19.474Z,46.4
2019-02-02T20:08:19.132Z,51.5
2019-02-02T20:10:19.241Z,58.2
2019-02-02T20:12:18.901Z,61.8
2019-02-02T20:14:19.532Z,52.1
2019-02-02T20:16:18.905Z,55.4
2019-02-02T20:18:18.608Z,53.7
2019-02-02T20:20:19.242Z,67.3
2019-02-02T20:22:18.866Z,58.4
2019-02-02T20:24:19.510Z,58.8
2019-02-02T20:26:18.864Z,71.6
2019-02-02T20:28:19.502Z,63.9
2019-02-02T20:30:19.153Z,62.6
2019-02-02T20:32:18.763Z,70.2
2019-02-02T20:34:19.394Z,61.9
2019-02-02T20:36:18.736Z,69
2019-02-02T20:38:19.359Z,69
2019-02-02T20:40:19.435Z,63.3
2019-02-02T20:42:19.051Z,59.6
2019-02-02T20:44:18.714Z,70.4
2019-02-02T20:46:19.004Z,65.5
2019-02-02T20:48:18.636Z,62.4
2019-02-02T20:50:19.322Z,73.3
2019-02-02T20:52:18.951Z,71.9
2019-02-02T20:54:19.327Z,70.3
2019-02-02T20:56:18.776Z,73.8
2019-02-02T20:58:19.396Z,63.8
2019-02-02T21:00:19.077Z,64.8
2019-02-02T21:02:19.156Z,60.1
2019-02-02T21:04:18.807Z,69.3
2019-02-02T21:06:19.117Z,58.8
2019-02-02T21:08:18.739Z,74.1
2019-02-02T21:10:18.859Z,61
2019-02-02T21:12:19.385Z,69.8
2019-02-02T21:14:19.020Z,59.7
2019-02-02T21:16:18.664Z,50.4
2019-02-02T21:18:19.388Z,61.7
2019-02-02T21:20:19.034Z,68
2019-02-02T21:22:18.664Z,57.4
2019-02-02T21:24:19.317Z,64.2
2019-02-02T21:26:19.129Z,74.9
2019-02-02T21:28:19.117Z,60.2
2019-02-02T21:30:19.076Z,66.6
2019-02-02T21:32:18.814Z,72
2019-02-02T21:34:19.452Z,57
2019-02-02T21:36:19.787Z,52.9
2019-02-02T21:38:18.610Z,53.6
2019-02-02T21:40:18.737Z,55.1
2019-02-02T21:42:19.370Z,63.6
2019-02-02T21:44:19.212Z,58.1
2019-02-02T21:46:18.791Z,60.4
2019-02-02T21:48:19.488Z,36.2
2019-02-02T21:50:19.153Z,47.9
2019-02-02T21:52:18.814Z,60.3
2019-02-02T21:54:19.503Z,51
2019-02-02T21:56:18.818Z,49.4
2019-02-02T21:58:19.484Z,34.5
2019-02-02T22:00:19.154Z,40
2019-02-02T22:02:18.800Z,37
2019-02-02T22:04:19.506Z,20.2
2019-02-02T22:06:18.813Z,30.3
2019-02-02T22:08:19.489Z,41.5
2019-02-02T22:10:18.634Z,34.4
2019-02-02T22:12:19.281Z,27.9
2019-02-02T22:14:18.919Z,33.9
2019-02-02T22:16:19.334Z,33.5
2019-02-02T22:18:22.089Z,38.5
2019-02-02T22:20:18.856Z,42.9
2019-02-02T22:22:19.395Z,47.1
2019-02-02T22:24:19.037Z,28.1
2019-02-02T22:26:19.390Z,37
2019-02-02T22:28:19.045Z,30.3
2019-02-02T22:30:18.715Z,34.1
2019-02-02T22:32:19.367Z,37.2
2019-02-02T22:34:19.115Z,33.1
2019-02-02T22:36:27.873Z,30.8
2019-02-02T22:38:19.595Z,30.1
2019-02-02T22:40:18.722Z,35
2019-02-02T22:42:19.448Z,28.6
2019-02-02T22:44:19.427Z,31.9
2019-02-02T22:46:18.602Z,25.9
2019-02-02T22:48:19.259Z,29.4
2019-02-02T22:50:19.231Z,32.7
2019-02-02T22:52:19.208Z,39
2019-02-02T22:54:18.825Z,30.6
2019-02-02T22:56:19.102Z,36.2
2019-02-02T22:58:18.735Z,33
2019-02-02T23:00:19.400Z,39.7
2019-02-02T23:02:19.032Z,42.2
2019-02-02T23:04:18.680Z,41.2
2019-02-02T23:06:18.992Z,53.1
2019-02-02T23:08:18.642Z,39.9
2019-02-02T23:10:18.821Z,34.6
2019-02-02T23:12:19.490Z,51.1
2019-02-02T23:14:19.115Z,29.6
2019-02-02T23:16:18.968Z,40.9
2019-02-02T23:18:18.727Z,40.2
2019-02-02T23:20:19.397Z,52.1
2019-02-02T23:22:19.059Z,47.5
2019-02-02T23:24:18.995Z,42.2
2019-02-02T23:26:18.740Z,27.7
2019-02-02T23:28:19.418Z,54.6
2019-02-02T23:30:19.047Z,47.9
2019-02-02T23:32:19.083Z,36.7
2019-02-02T23:34:18.959Z,57
2019-02-02T23:36:19.272Z,47.2
2019-02-02T23:38:18.929Z,39.7
2019-02-02T23:40:19.423Z,58.8
2019-02-02T23:42:19.331Z,42.8
2019-02-02T23:44:18.994Z,46.7
2019-02-02T23:46:19.279Z,43.3
2019-02-02T23:48:19.178Z,40.1
2019-02-02T23:50:19.046Z,36.1
2019-02-02T23:52:18.711Z,45.2
2019-02-02T23:54:19.375Z,42.9
2019-02-02T23:56:18.776Z,41.3
2019-02-02T23:58:18.583Z,46.9
